createdAt,value
2022-08-17T00:00:52.073Z,87.39
2022-08-17T00:01:52.706Z,87.39
2022-08-17T00:02:51.142Z,87.29
2022-08-17T00:03:51.056Z,87.49
2022-08-17T00:04:51.016Z,87.69
2022-08-17T00:05:51.040Z,87.49
2022-08-17T00:06:50.997Z,87.69
2022-08-17T00:07:51.138Z,87.59
2022-08-17T00:08:50.974Z,87.69
2022-08-17T00:09:50.954Z,87.79
2022-08-17T00:10:50.988Z,87.69
2022-08-17T00:12:41.839Z,87.89
2022-08-17T00:12:52.353Z,87.89
2022-08-17T00:13:50.928Z,87.89
2022-08-17T00:14:51.919Z,88.19
2022-08-17T00:15:50.931Z,87.99
2022-08-17T00:16:57.045Z,88.19
2022-08-17T00:17:51.868Z,88.29
2022-08-17T00:18:58.368Z,88.09
2022-08-17T00:19:51.858Z,87.89
2022-08-17T00:20:50.881Z,87.99
2022-08-17T00:22:30.104Z,88.19
2022-08-17T00:22:52.051Z,87.99
2022-08-17T00:23:50.812Z,87.99
2022-08-17T00:24:50.814Z,87.99
2022-08-17T00:25:50.822Z,87.89
2022-08-17T00:26:50.813Z,88.09
2022-08-17T00:27:50.773Z,88.29
2022-08-17T00:28:50.795Z,87.99
2022-08-17T00:29:50.740Z,88.29
2022-08-17T00:30:52.773Z,88.09
2022-08-17T00:31:50.734Z,88.19
2022-08-17T00:33:13.886Z,88.39
2022-08-17T00:33:51.706Z,88.29
2022-08-17T00:34:50.701Z,88.19
2022-08-17T00:35:50.716Z,88.69
2022-08-17T00:36:50.693Z,88.29
2022-08-17T00:37:50.669Z,88.49
2022-08-17T00:38:50.646Z,88.69
2022-08-17T00:39:50.708Z,88.19
2022-08-17T00:40:50.656Z,88.39
2022-08-17T00:41:50.644Z,88.53
2022-08-17T00:42:50.742Z,88.19
2022-08-17T00:43:50.595Z,88.53
2022-08-17T00:44:50.588Z,88.64
2022-08-17T00:45:50.614Z,88.33
2022-08-17T00:46:50.558Z,88.73
2022-08-17T00:47:50.567Z,88.23
2022-08-17T00:48:50.566Z,88.53
2022-08-17T00:49:50.541Z,88.43
2022-08-17T00:50:50.581Z,88.83
2022-08-17T00:51:50.512Z,88.83
2022-08-17T00:52:50.705Z,88.73
2022-08-17T00:53:50.494Z,88.64
2022-08-17T00:54:50.480Z,88.53
2022-08-17T00:55:50.505Z,88.83
2022-08-17T00:56:50.471Z,88.43
2022-08-17T00:57:54.743Z,88.73
2022-08-17T00:58:51.439Z,88.73
2022-08-17T00:59:55.996Z,88.64
2022-08-17T01:00:51.488Z,88.53
2022-08-17T01:01:50.424Z,88.83
2022-08-17T01:02:50.418Z,88.93
2022-08-17T01:03:50.407Z,88.73
2022-08-17T01:04:50.372Z,88.83
2022-08-17T01:05:50.391Z,88.93
2022-08-17T01:06:50.346Z,88.93
2022-08-17T01:07:50.343Z,88.93
2022-08-17T01:08:50.342Z,88.64
2022-08-17T01:09:51.322Z,88.73
2022-08-17T01:11:00.582Z,88.93
2022-08-17T01:11:51.294Z,89.14
2022-08-17T01:12:50.447Z,89.03
2022-08-17T01:13:50.272Z,89.23
2022-08-17T01:14:50.273Z,89.14
2022-08-17T01:15:50.313Z,89.14
2022-08-17T01:16:50.266Z,89.03
2022-08-17T01:17:50.287Z,89.03
2022-08-17T01:18:50.217Z,89.14
2022-08-17T01:19:50.219Z,89.18
2022-08-17T01:20:50.225Z,89.07
2022-08-17T01:21:50.204Z,89.18
2022-08-17T01:22:50.403Z,88.87
2022-08-17T01:23:50.194Z,88.98
2022-08-17T01:24:50.173Z,89.07
2022-08-17T01:25:50.265Z,89.18
2022-08-17T01:26:50.255Z,89.18
2022-08-17T01:27:50.128Z,89.07
2022-08-17T01:28:54.602Z,88.98
2022-08-17T01:29:51.125Z,89.07
2022-08-17T01:30:57.297Z,89.07
2022-08-17T01:31:51.093Z,89.18
2022-08-17T01:32:50.196Z,89.07
2022-08-17T01:33:50.080Z,89.07
2022-08-17T01:34:50.603Z,89.07
2022-08-17T01:35:50.082Z,89.07
2022-08-17T01:36:50.039Z,89.28
2022-08-17T01:37:50.025Z,89.37
2022-08-17T01:38:50.023Z,89.48
2022-08-17T01:39:50.113Z,89.48
2022-08-17T01:40:50.025Z,89.28
2022-08-17T01:41:50.999Z,89.37
2022-08-17T01:42:50.199Z,89.28
2022-08-17T01:43:49.964Z,89.37
2022-08-17T01:44:49.947Z,89.28
2022-08-17T01:45:49.962Z,89.37
2022-08-17T01:46:50.927Z,89.07
2022-08-17T01:47:49.916Z,89.07
2022-08-17T01:48:49.906Z,89.07
2022-08-17T01:49:49.940Z,88.98
2022-08-17T01:50:49.922Z,89.28
2022-08-17T01:51:49.932Z,89.48
2022-08-17T01:52:50.092Z,89.37
2022-08-17T01:53:49.869Z,89.28
2022-08-17T01:54:49.842Z,89.28
2022-08-17T01:55:49.865Z,89.37
2022-08-17T01:56:49.830Z,89.28
2022-08-17T01:57:49.834Z,89.48
2022-08-17T01:58:49.815Z,89.28
2022-08-17T01:59:49.791Z,89.48
2022-08-17T02:01:00.662Z,89.32
2022-08-17T02:01:50.927Z,89.07
2022-08-17T02:02:49.980Z,89.22
2022-08-17T02:03:53.408Z,89.52
2022-08-17T02:04:50.741Z,89.52
2022-08-17T02:05:49.740Z,89.52
2022-08-17T02:06:53.451Z,89.52
2022-08-17T02:08:00.240Z,89.62
2022-08-17T02:09:03.073Z,89.62
2022-08-17T02:09:52.760Z,89.42
2022-08-17T02:10:49.713Z,89.42
2022-08-17T02:11:49.663Z,89.42
2022-08-17T02:12:49.877Z,89.32
2022-08-17T02:13:49.658Z,89.52
2022-08-17T02:14:50.622Z,89.72
2022-08-17T02:15:49.655Z,89.72
2022-08-17T02:16:49.621Z,89.72
2022-08-17T02:17:49.604Z,89.92
2022-08-17T02:18:50.584Z,89.82
2022-08-17T02:19:49.595Z,89.82
2022-08-17T02:20:49.596Z,89.82
2022-08-17T02:21:49.568Z,89.72
2022-08-17T02:22:49.766Z,89.62
2022-08-17T02:23:49.526Z,89.72
2022-08-17T02:25:01.018Z,89.62
2022-08-17T02:25:50.568Z,89.72
2022-08-17T02:26:49.497Z,89.62
2022-08-17T02:27:49.491Z,89.52
2022-08-17T02:28:49.475Z,89.62
2022-08-17T02:29:49.478Z,89.52
2022-08-17T02:31:00.094Z,89.52
2022-08-17T02:31:50.657Z,89.52
2022-08-17T02:32:49.673Z,89.52
2022-08-17T02:34:00.361Z,89.32
2022-08-17T02:34:50.468Z,89.22
2022-08-17T02:35:49.402Z,89.16
2022-08-17T02:36:49.391Z,89.56
2022-08-17T02:37:51.820Z,89.66
2022-08-17T02:38:50.361Z,89.62
2022-08-17T02:39:49.417Z,89.76
2022-08-17T02:40:49.342Z,89.66
2022-08-17T02:41:49.355Z,89.56
2022-08-17T02:42:49.466Z,89.66
2022-08-17T02:43:49.426Z,89.76
2022-08-17T02:44:49.304Z,89.66
2022-08-17T02:45:49.292Z,89.86
2022-08-17T02:46:49.293Z,89.96
2022-08-17T02:47:49.323Z,89.76
2022-08-17T02:48:49.265Z,89.66
2022-08-17T02:49:54.210Z,89.56
2022-08-17T02:50:50.248Z,89.46
2022-08-17T02:51:49.236Z,89.66
2022-08-17T02:52:55.244Z,89.86
2022-08-17T02:53:50.200Z,89.96
2022-08-17T02:54:49.238Z,89.86
2022-08-17T02:55:49.232Z,89.66
2022-08-17T02:56:49.185Z,89.86
2022-08-17T02:57:49.192Z,89.76
2022-08-17T02:58:49.149Z,89.66
2022-08-17T02:59:49.276Z,89.46
2022-08-17T03:00:49.128Z,89.26
2022-08-17T03:01:49.173Z,89.26
2022-08-17T03:02:49.347Z,89.26
2022-08-17T03:03:49.097Z,89.66
2022-08-17T03:04:49.078Z,89.56
2022-08-17T03:05:49.071Z,89.46
2022-08-17T03:06:49.059Z,89.46
2022-08-17T03:07:49.079Z,89.36
2022-08-17T03:08:49.038Z,89.46
2022-08-17T03:09:49.041Z,89.56
2022-08-17T03:10:49.035Z,89.36
2022-08-17T03:11:49.019Z,89.36
2022-08-17T03:12:49.122Z,89.36
2022-08-17T03:13:48.991Z,89.56
2022-08-17T03:14:48.982Z,89.36
2022-08-17T03:15:49.001Z,89.46
2022-08-17T03:16:48.967Z,89.46
2022-08-17T03:17:48.996Z,89.36
2022-08-17T03:18:48.946Z,89.26
2022-08-17T03:19:48.934Z,89.36
2022-08-17T03:20:48.914Z,89.36
2022-08-17T03:21:54.806Z,89.50
2022-08-17T03:22:53.601Z,89.61
2022-08-17T03:23:48.903Z,89.70
2022-08-17T03:24:49.894Z,89.70
2022-08-17T03:25:48.874Z,89.70
2022-08-17T03:26:48.868Z,89.61
2022-08-17T03:27:48.866Z,89.30
2022-08-17T03:28:48.880Z,89.50
2022-08-17T03:29:48.826Z,89.40
2022-08-17T03:30:48.839Z,89.40
2022-08-17T03:31:48.803Z,89.50
2022-08-17T03:32:48.844Z,89.40
2022-08-17T03:33:48.862Z,89.30
2022-08-17T03:34:48.835Z,89.50
2022-08-17T03:35:48.788Z,89.70
2022-08-17T03:36:48.768Z,89.81
2022-08-17T03:37:48.740Z,89.81
2022-08-17T03:38:49.779Z,89.81
2022-08-17T03:39:48.808Z,89.70
2022-08-17T03:40:56.705Z,89.61
2022-08-17T03:41:49.693Z,89.61
2022-08-17T03:42:48.808Z,89.70
2022-08-17T03:43:48.710Z,89.81
2022-08-17T03:44:48.692Z,89.61
2022-08-17T03:45:48.721Z,89.61
2022-08-17T03:46:48.671Z,89.50
2022-08-17T03:47:48.657Z,89.20
2022-08-17T03:48:48.611Z,89.40
2022-08-17T03:49:48.623Z,89.61
2022-08-17T03:50:48.616Z,89.61
2022-08-17T03:51:48.592Z,89.81
2022-08-17T03:52:51.908Z,89.81
2022-08-17T03:53:48.586Z,89.70
2022-08-17T03:54:48.559Z,89.70
2022-08-17T03:55:48.565Z,89.81
2022-08-17T03:56:48.537Z,89.70
2022-08-17T03:57:48.545Z,89.50
2022-08-17T03:58:48.544Z,89.40
2022-08-17T03:59:48.517Z,89.61
2022-08-17T04:00:48.488Z,89.81
2022-08-17T04:01:48.527Z,89.81
2022-08-17T04:02:48.470Z,89.61
2022-08-17T04:03:48.468Z,89.81
2022-08-17T04:04:48.489Z,90.00
2022-08-17T04:05:48.468Z,89.90
2022-08-17T04:06:48.428Z,90.11
2022-08-17T04:07:48.442Z,90.20
2022-08-17T04:08:48.430Z,90.11
2022-08-17T04:09:48.398Z,90.00
2022-08-17T04:10:48.420Z,90.15
2022-08-17T04:11:48.396Z,90.31
2022-08-17T04:12:48.399Z,90.31
2022-08-17T04:13:48.362Z,90.20
2022-08-17T04:14:52.700Z,90.00
2022-08-17T04:15:49.335Z,90.00
2022-08-17T04:16:48.310Z,89.95
2022-08-17T04:17:48.322Z,90.00
2022-08-17T04:18:48.292Z,90.11
2022-08-17T04:19:48.343Z,90.11
2022-08-17T04:20:48.274Z,90.05
2022-08-17T04:21:48.274Z,90.05
2022-08-17T04:22:48.275Z,90.15
2022-08-17T04:23:48.272Z,90.35
2022-08-17T04:24:48.242Z,90.45
2022-08-17T04:25:48.244Z,90.41
2022-08-17T04:26:53.607Z,90.70
2022-08-17T04:27:49.215Z,90.75
2022-08-17T04:28:48.195Z,90.75
2022-08-17T04:29:54.480Z,90.61
2022-08-17T04:30:49.166Z,90.70
2022-08-17T04:31:48.203Z,90.75
2022-08-17T04:32:59.365Z,90.85
2022-08-17T04:33:49.191Z,91.05
2022-08-17T04:34:48.125Z,91.45
2022-08-17T04:35:48.149Z,91.51
2022-08-17T04:36:50.537Z,91.61
2022-08-17T04:37:48.131Z,91.61
2022-08-17T04:38:48.220Z,91.31
2022-08-17T04:39:48.372Z,91.35
2022-08-17T04:40:48.093Z,91.41
2022-08-17T04:41:48.155Z,91.61
2022-08-17T04:42:48.109Z,91.61
2022-08-17T04:43:49.134Z,91.81
2022-08-17T04:44:48.243Z,92.01
2022-08-17T04:45:54.876Z,91.91
2022-08-17T04:46:49.015Z,91.81
2022-08-17T04:47:47.985Z,91.81
2022-08-17T04:48:48.062Z,91.81
2022-08-17T04:49:48.065Z,91.81
2022-08-17T04:50:48.083Z,91.91
2022-08-17T04:51:55.851Z,92.01
2022-08-17T04:52:48.934Z,92.01
2022-08-17T04:53:54.133Z,92.01
2022-08-17T04:54:48.950Z,92.01
2022-08-17T04:55:47.905Z,92.11
2022-08-17T04:56:47.915Z,92.11
2022-08-17T04:57:47.887Z,92.11
2022-08-17T04:58:47.864Z,92.11
2022-08-17T04:59:47.856Z,92.21
2022-08-17T05:00:47.886Z,92.31
2022-08-17T05:01:47.895Z,92.51
2022-08-17T05:02:49.874Z,92.61
2022-08-17T05:03:47.817Z,92.61
2022-08-17T05:04:47.833Z,92.71
2022-08-17T05:05:47.792Z,92.71
2022-08-17T05:06:47.799Z,92.81
2022-08-17T05:07:47.768Z,92.81
2022-08-17T05:08:47.775Z,92.81
2022-08-17T05:09:47.737Z,92.91
2022-08-17T05:10:47.745Z,92.91
2022-08-17T05:11:47.801Z,93.01
2022-08-17T05:12:47.802Z,93.11
2022-08-17T05:13:47.718Z,93.21
2022-08-17T05:14:47.701Z,93.21
2022-08-17T05:15:48.090Z,93.21
2022-08-17T05:16:47.707Z,93.21
2022-08-17T05:17:47.659Z,93.21
2022-08-17T05:18:47.644Z,93.21
2022-08-17T05:19:51.853Z,93.31
2022-08-17T05:20:47.629Z,93.41
2022-08-17T05:21:47.662Z,93.51
2022-08-17T05:22:47.639Z,93.51
2022-08-17T05:23:47.743Z,93.62
2022-08-17T05:24:53.809Z,93.62
2022-08-17T05:25:48.581Z,93.71
2022-08-17T05:26:47.594Z,93.81
2022-08-17T05:27:47.543Z,93.91
2022-08-17T05:28:47.593Z,94.01
2022-08-17T05:29:47.542Z,94.12
2022-08-17T05:30:49.330Z,94.21
2022-08-17T05:31:47.524Z,94.31
2022-08-17T05:32:47.502Z,94.42
2022-08-17T05:33:47.525Z,94.62
2022-08-17T05:34:47.496Z,94.62
2022-08-17T05:35:47.485Z,94.62
2022-08-17T05:36:47.486Z,94.62
2022-08-17T05:37:47.459Z,94.82
2022-08-17T05:38:47.455Z,94.92
2022-08-17T05:39:47.441Z,95.01
2022-08-17T05:40:47.414Z,95.12
2022-08-17T05:41:47.431Z,95.12
2022-08-17T05:42:47.411Z,95.21
2022-08-17T05:43:47.407Z,95.21
2022-08-17T05:44:47.408Z,95.32
2022-08-17T05:45:55.957Z,95.12
2022-08-17T05:46:48.378Z,94.66
2022-08-17T05:47:47.351Z,94.46
2022-08-17T05:48:47.397Z,94.36
2022-08-17T05:49:48.884Z,93.86
2022-08-17T05:50:47.310Z,94.51
2022-08-17T05:51:47.292Z,94.71
2022-08-17T05:52:47.320Z,94.12
2022-08-17T05:53:47.269Z,93.91
2022-08-17T05:54:47.359Z,94.12
2022-08-17T05:55:47.268Z,94.21
2022-08-17T05:56:47.255Z,93.81
2022-08-17T05:57:49.689Z,92.71
2022-08-17T05:58:48.263Z,91.71
2022-08-17T05:59:47.231Z,92.21
2022-08-17T06:00:47.249Z,92.11
2022-08-17T06:01:47.180Z,91.61
2022-08-17T06:02:48.022Z,91.20
2022-08-17T06:03:47.167Z,91.20
2022-08-17T06:04:47.182Z,91.01
2022-08-17T06:05:47.174Z,90.91
2022-08-17T06:06:47.137Z,91.01
2022-08-17T06:07:47.123Z,91.91
2022-08-17T06:08:47.125Z,92.57
2022-08-17T06:09:47.106Z,92.27
2022-08-17T06:10:47.117Z,91.97
2022-08-17T06:11:47.108Z,91.86
2022-08-17T06:12:48.223Z,92.36
2022-08-17T06:13:47.057Z,92.27
2022-08-17T06:14:47.142Z,91.86
2022-08-17T06:15:47.064Z,91.47
2022-08-17T06:16:47.058Z,91.06
2022-08-17T06:17:47.030Z,91.36
2022-08-17T06:18:47.021Z,91.56
2022-08-17T06:19:46.999Z,90.96
2022-08-17T06:20:46.990Z,90.36
2022-08-17T06:21:46.998Z,90.26
2022-08-17T06:22:47.046Z,91.06
2022-08-17T06:23:46.977Z,90.77
2022-08-17T06:24:46.941Z,90.56
2022-08-17T06:25:47.002Z,91.16
2022-08-17T06:26:46.952Z,90.56
2022-08-17T06:27:46.943Z,89.96
2022-08-17T06:28:47.900Z,90.26
2022-08-17T06:29:46.912Z,90.06
2022-08-17T06:30:58.622Z,90.02
2022-08-17T06:31:47.911Z,89.52
2022-08-17T06:32:46.915Z,89.52
2022-08-17T06:33:46.854Z,89.42
2022-08-17T06:34:46.938Z,89.22
2022-08-17T06:35:46.854Z,89.12
2022-08-17T06:36:46.825Z,89.02
2022-08-17T06:37:46.836Z,88.92
2022-08-17T06:38:46.801Z,89.62
2022-08-17T06:39:46.812Z,89.12
2022-08-17T06:40:46.800Z,89.02
2022-08-17T06:41:46.765Z,89.22
2022-08-17T06:43:04.073Z,88.92
2022-08-17T06:43:48.179Z,88.82
2022-08-17T06:44:51.018Z,88.71
2022-08-17T06:45:46.719Z,88.71
2022-08-17T06:46:46.724Z,88.68
2022-08-17T06:47:46.729Z,88.57
2022-08-17T06:48:46.687Z,88.78
2022-08-17T06:49:49.512Z,88.68
2022-08-17T06:50:47.694Z,88.48
2022-08-17T06:51:46.678Z,88.18
2022-08-17T06:52:55.746Z,88.07
2022-08-17T06:53:47.660Z,88.07
2022-08-17T06:54:46.618Z,88.07
2022-08-17T06:55:46.601Z,88.07
2022-08-17T06:56:53.745Z,88.07
2022-08-17T06:57:47.599Z,88.07
2022-08-17T06:58:46.699Z,88.37
2022-08-17T06:59:54.929Z,87.73
2022-08-17T07:00:47.694Z,87.53
2022-08-17T07:01:46.551Z,87.43
2022-08-17T07:02:52.317Z,87.34
2022-08-17T07:03:47.552Z,87.34
2022-08-17T07:04:46.508Z,87.23
2022-08-17T07:05:46.504Z,87.13
2022-08-17T07:06:46.522Z,87.23
2022-08-17T07:07:46.482Z,87.19
2022-08-17T07:08:46.493Z,87.19
2022-08-17T07:09:46.455Z,87.29
2022-08-17T07:10:46.453Z,87.39
2022-08-17T07:11:46.498Z,87.29
2022-08-17T07:12:46.456Z,87.19
2022-08-17T07:13:51.410Z,86.99
2022-08-17T07:14:47.414Z,86.89
2022-08-17T07:15:46.405Z,86.89
2022-08-17T07:16:46.399Z,86.89
2022-08-17T07:17:57.735Z,86.99
2022-08-17T07:18:47.370Z,86.89
2022-08-17T07:19:46.376Z,86.79
2022-08-17T07:20:46.369Z,86.79
2022-08-17T07:21:46.344Z,86.79
2022-08-17T07:22:53.609Z,86.65
2022-08-17T07:23:47.372Z,86.65
2022-08-17T07:24:46.337Z,86.35
2022-08-17T07:25:46.288Z,86.25
2022-08-17T07:26:46.281Z,86.45
2022-08-17T07:27:46.289Z,86.45
2022-08-17T07:28:46.247Z,86.55
2022-08-17T07:29:46.239Z,86.95
2022-08-17T07:30:47.326Z,86.75
2022-08-17T07:31:46.228Z,86.65
2022-08-17T07:32:46.220Z,86.85
2022-08-17T07:33:46.201Z,88.15
2022-08-17T07:34:46.201Z,87.55
2022-08-17T07:35:46.324Z,87.30
2022-08-17T07:36:46.183Z,87.21
2022-08-17T07:37:46.182Z,87.81
2022-08-17T07:38:46.151Z,88.21
2022-08-17T07:40:13.165Z,88.21
2022-08-17T07:40:47.182Z,88.71
2022-08-17T07:41:57.490Z,88.10
2022-08-17T07:42:47.134Z,87.81
2022-08-17T07:43:46.085Z,89.40
2022-08-17T07:44:46.078Z,89.40
2022-08-17T07:45:46.201Z,88.81
2022-08-17T07:46:46.076Z,87.61
2022-08-17T07:47:46.098Z,87.21
2022-08-17T07:48:46.065Z,87.01
2022-08-17T07:49:46.091Z,88.81
2022-08-17T07:50:46.121Z,88.81
2022-08-17T07:51:46.026Z,88.81
2022-08-17T07:52:47.873Z,88.31
2022-08-17T07:53:46.996Z,89.06
2022-08-17T07:54:45.999Z,89.06
2022-08-17T07:55:45.967Z,88.96
2022-08-17T07:56:45.946Z,89.56
2022-08-17T07:57:45.939Z,88.46
2022-08-17T07:58:45.950Z,88.46
2022-08-17T07:59:45.956Z,88.26
2022-08-17T08:00:45.910Z,88.86
2022-08-17T08:01:45.936Z,88.76
2022-08-17T08:02:45.888Z,88.67
2022-08-17T08:03:45.898Z,90.02
2022-08-17T08:05:00.123Z,89.22
2022-08-17T08:05:50.083Z,88.56
2022-08-17T08:06:45.839Z,88.72
2022-08-17T08:07:45.899Z,88.37
2022-08-17T08:08:45.839Z,88.82
2022-08-17T08:09:45.830Z,88.52
2022-08-17T08:10:45.799Z,89.52
2022-08-17T08:11:45.869Z,89.02
2022-08-17T08:12:45.806Z,88.72
2022-08-17T08:13:46.036Z,89.02
2022-08-17T08:14:45.769Z,89.32
2022-08-17T08:15:53.826Z,89.32
2022-08-17T08:16:46.743Z,89.32
2022-08-17T08:17:45.731Z,88.82
2022-08-17T08:18:55.905Z,89.42
2022-08-17T08:19:46.725Z,89.02
2022-08-17T08:20:52.674Z,89.32
2022-08-17T08:21:46.695Z,89.42
2022-08-17T08:22:45.686Z,89.52
2022-08-17T08:23:45.654Z,89.02
2022-08-17T08:24:45.656Z,89.12
2022-08-17T08:25:45.697Z,88.62
2022-08-17T08:26:45.636Z,89.32
2022-08-17T08:27:45.651Z,89.12
2022-08-17T08:28:45.606Z,89.02
2022-08-17T08:29:45.669Z,89.22
2022-08-17T08:30:45.607Z,88.58
2022-08-17T08:31:45.626Z,88.18
2022-08-17T08:32:45.572Z,87.98
2022-08-17T08:33:45.569Z,88.28
2022-08-17T08:35:01.377Z,87.88
2022-08-17T08:35:46.566Z,87.98
2022-08-17T08:37:15.726Z,87.88
2022-08-17T08:37:46.510Z,88.08
2022-08-17T08:38:45.501Z,88.18
2022-08-17T08:39:45.617Z,88.48
2022-08-17T08:40:45.524Z,88.18
2022-08-17T08:41:45.481Z,88.28
2022-08-17T08:42:45.480Z,88.48
2022-08-17T08:43:48.395Z,88.58
2022-08-17T08:45:00.139Z,88.58
2022-08-17T08:45:46.493Z,89.07
2022-08-17T08:46:45.433Z,89.07
2022-08-17T08:47:45.442Z,89.07
2022-08-17T08:48:55.666Z,89.38
2022-08-17T08:50:03.525Z,89.18
2022-08-17T08:50:46.390Z,89.18
2022-08-17T08:51:45.409Z,89.58
2022-08-17T08:52:45.458Z,89.53
2022-08-17T08:53:45.399Z,89.87
2022-08-17T08:54:45.352Z,89.98
2022-08-17T08:55:45.338Z,89.94
2022-08-17T08:57:11.600Z,89.34
2022-08-17T08:57:46.407Z,87.64
2022-08-17T08:58:45.315Z,86.84
2022-08-17T08:59:45.285Z,85.85
2022-08-17T09:00:46.299Z,85.55
2022-08-17T09:01:45.354Z,86.20
2022-08-17T09:02:45.269Z,85.21
2022-08-17T09:03:52.717Z,85.60
2022-08-17T09:05:12.950Z,84.01
2022-08-17T09:05:46.253Z,83.71
2022-08-17T09:06:45.221Z,84.01
2022-08-17T09:07:45.229Z,85.50
2022-08-17T09:08:45.190Z,85.71
2022-08-17T09:09:45.182Z,83.11
2022-08-17T09:10:45.158Z,84.37
2022-08-17T09:12:02.411Z,84.97
2022-08-17T09:12:46.183Z,84.27
2022-08-17T09:13:45.140Z,84.37
2022-08-17T09:14:47.285Z,85.06
2022-08-17T09:15:45.130Z,85.06
2022-08-17T09:16:45.103Z,83.87
2022-08-17T09:17:45.100Z,83.77
2022-08-17T09:19:00.859Z,82.97
2022-08-17T09:19:46.282Z,83.37
2022-08-17T09:20:49.599Z,84.17
2022-08-17T09:21:48.162Z,84.67
2022-08-17T09:22:45.054Z,84.86
2022-08-17T09:23:45.035Z,85.27
2022-08-17T09:24:45.015Z,84.77
2022-08-17T09:25:45.034Z,83.57
2022-08-17T09:26:46.421Z,84.27
2022-08-17T09:27:45.017Z,84.47
2022-08-17T09:28:45.015Z,84.27
2022-08-17T09:29:44.981Z,84.77
2022-08-17T09:30:45.004Z,82.87
2022-08-17T09:31:48.841Z,82.67
2022-08-17T09:32:44.955Z,83.27
2022-08-17T09:33:44.930Z,83.23
2022-08-17T09:34:47.048Z,83.33
2022-08-17T09:35:44.958Z,81.64
2022-08-17T09:36:44.906Z,80.74
2022-08-17T09:37:44.889Z,81.44
2022-08-17T09:38:44.884Z,81.64
2022-08-17T09:39:44.959Z,82.54
2022-08-17T09:40:44.861Z,78.61
2022-08-17T09:41:48.509Z,78.52
2022-08-17T09:42:44.830Z,79.71
2022-08-17T09:43:44.819Z,78.88
2022-08-17T09:44:44.845Z,80.47
2022-08-17T09:45:44.822Z,80.07
2022-08-17T09:46:44.800Z,80.27
2022-08-17T09:47:44.853Z,81.16
2022-08-17T09:48:44.823Z,77.19
2022-08-17T09:49:44.763Z,79.37
2022-08-17T09:51:03.409Z,79.77
2022-08-17T09:51:45.767Z,77.88
2022-08-17T09:52:44.762Z,79.47
2022-08-17T09:53:44.944Z,79.67
2022-08-17T09:54:44.719Z,80.57
2022-08-17T09:55:44.735Z,79.27
2022-08-17T09:56:48.265Z,78.78
2022-08-17T09:57:45.676Z,79.97
2022-08-17T09:58:44.877Z,80.27
2022-08-17T09:59:44.696Z,79.77
2022-08-17T10:00:44.737Z,79.77
2022-08-17T10:01:44.797Z,80.87
2022-08-17T10:02:44.627Z,81.36
2022-08-17T10:03:44.677Z,80.66
2022-08-17T10:04:44.603Z,81.36
2022-08-17T10:05:44.586Z,78.48
2022-08-17T10:06:44.588Z,77.88
2022-08-17T10:07:44.580Z,78.08
2022-08-17T10:08:44.576Z,79.57
2022-08-17T10:09:44.760Z,80.66
2022-08-17T10:10:52.488Z,80.36
2022-08-17T10:11:45.686Z,80.77
2022-08-17T10:12:46.468Z,80.96
2022-08-17T10:13:52.688Z,80.77
2022-08-17T10:14:45.588Z,79.47
2022-08-17T10:15:45.474Z,79.97
2022-08-17T10:16:44.470Z,78.97
2022-08-17T10:17:44.475Z,78.48
2022-08-17T10:18:44.473Z,79.97
2022-08-17T10:19:44.590Z,80.57
2022-08-17T10:20:44.432Z,80.17
2022-08-17T10:21:44.420Z,78.58
2022-08-17T10:22:44.447Z,80.83
2022-08-17T10:23:44.400Z,77.05
2022-08-17T10:25:20.956Z,76.06
2022-08-17T10:26:00.787Z,74.66
2022-08-17T10:26:57.191Z,77.41
2022-08-17T10:27:45.391Z,78.11
2022-08-17T10:28:44.345Z,77.41
2022-08-17T10:29:49.811Z,78.50
2022-08-17T10:30:45.371Z,75.12
2022-08-17T10:31:44.350Z,78.70
2022-08-17T10:32:44.311Z,76.42
2022-08-17T10:33:44.301Z,71.94
2022-08-17T10:34:44.309Z,72.50
2022-08-17T10:35:44.306Z,70.72
2022-08-17T10:36:44.327Z,70.42
2022-08-17T10:37:44.273Z,72.97
2022-08-17T10:38:44.270Z,73.07
2022-08-17T10:39:52.148Z,72.47
2022-08-17T10:40:45.231Z,69.39
2022-08-17T10:41:44.300Z,70.75
2022-08-17T10:42:44.227Z,70.35
2022-08-17T10:43:44.191Z,71.84
2022-08-17T10:44:45.359Z,71.34
2022-08-17T10:45:44.289Z,69.82
2022-08-17T10:46:44.174Z,71.81
2022-08-17T10:47:58.169Z,72.00
2022-08-17T10:48:45.165Z,72.20
2022-08-17T10:49:44.130Z,71.64
2022-08-17T10:50:44.142Z,71.44
2022-08-17T10:51:44.118Z,71.34
2022-08-17T10:52:44.153Z,71.25
2022-08-17T10:53:44.081Z,71.64
2022-08-17T10:54:44.084Z,72.83
2022-08-17T10:55:44.054Z,73.72
2022-08-17T10:56:44.042Z,72.53
2022-08-17T10:57:44.172Z,73.03
2022-08-17T10:58:44.047Z,73.23
2022-08-17T10:59:44.000Z,71.04
2022-08-17T11:00:44.187Z,71.94
2022-08-17T11:01:43.984Z,72.63
2022-08-17T11:02:44.033Z,70.22
2022-08-17T11:03:43.984Z,70.42
2022-08-17T11:04:43.996Z,70.22
2022-08-17T11:05:44.382Z,72.20
2022-08-17T11:06:43.946Z,73.79
2022-08-17T11:07:43.924Z,70.32
2022-08-17T11:08:43.955Z,71.91
2022-08-17T11:09:43.903Z,70.78
2022-08-17T11:10:46.426Z,72.47
2022-08-17T11:11:43.884Z,70.28
2022-08-17T11:12:43.912Z,71.67
2022-08-17T11:13:43.930Z,72.96
2022-08-17T11:14:43.853Z,70.58
2022-08-17T11:15:43.836Z,73.36
2022-08-17T11:16:43.826Z,70.58
2022-08-17T11:17:43.841Z,73.25
2022-08-17T11:18:44.493Z,74.74
2022-08-17T11:19:43.811Z,76.14
2022-08-17T11:20:43.841Z,76.53
2022-08-17T11:21:43.782Z,76.23
2022-08-17T11:22:43.920Z,76.33
2022-08-17T11:23:43.952Z,75.93
2022-08-17T11:24:45.538Z,78.05
2022-08-17T11:25:53.299Z,73.19
2022-08-17T11:26:48.178Z,74.15
2022-08-17T11:27:50.592Z,74.65
2022-08-17T11:28:52.855Z,76.43
2022-08-17T11:29:43.712Z,73.36
2022-08-17T11:30:44.365Z,75.74
2022-08-17T11:31:43.695Z,73.65
2022-08-17T11:32:47.834Z,71.64
2022-08-17T11:33:44.662Z,72.23
2022-08-17T11:34:43.784Z,74.71
2022-08-17T11:35:43.628Z,74.71
2022-08-17T11:36:43.633Z,75.90
2022-08-17T11:37:43.613Z,77.68
2022-08-17T11:38:43.588Z,73.82
2022-08-17T11:39:43.645Z,72.83
2022-08-17T11:40:43.943Z,71.41
2022-08-17T11:41:43.578Z,70.12
2022-08-17T11:42:43.601Z,68.73
2022-08-17T11:43:43.551Z,65.53
2022-08-17T11:44:44.220Z,69.29
2022-08-17T11:45:43.556Z,70.28
2022-08-17T11:46:43.518Z,70.68
2022-08-17T11:47:57.006Z,73.25
2022-08-17T11:48:44.490Z,72.26
2022-08-17T11:49:43.486Z,72.06
2022-08-17T11:50:43.499Z,73.05
2022-08-17T11:51:43.466Z,73.98
2022-08-17T11:52:44.436Z,74.48
2022-08-17T11:53:43.449Z,74.97
2022-08-17T11:54:43.421Z,75.86
2022-08-17T11:55:45.071Z,75.96
2022-08-17T11:56:44.000Z,75.76
2022-08-17T11:57:43.500Z,75.46
2022-08-17T11:58:43.390Z,75.76
2022-08-17T11:59:43.384Z,75.16
2022-08-17T12:00:43.422Z,71.41
2022-08-17T12:01:43.421Z,74.87
2022-08-17T12:02:47.559Z,74.24
2022-08-17T12:03:54.141Z,73.74
2022-08-17T12:04:44.368Z,72.96
2022-08-17T12:05:43.618Z,75.03
2022-08-17T12:06:43.364Z,69.29
2022-08-17T12:07:43.330Z,72.96
2022-08-17T12:08:44.106Z,74.04
2022-08-17T12:09:43.322Z,72.96
2022-08-17T12:10:43.244Z,74.44
2022-08-17T12:11:58.616Z,73.25
2022-08-17T12:12:44.238Z,74.54
2022-08-17T12:13:43.222Z,73.15
2022-08-17T12:15:08.985Z,69.89
2022-08-17T12:15:44.195Z,70.05
2022-08-17T12:16:43.210Z,72.13
2022-08-17T12:17:43.223Z,72.33
2022-08-17T12:18:43.155Z,71.73
2022-08-17T12:19:43.155Z,68.17
2022-08-17T12:20:43.135Z,69.46
2022-08-17T12:21:43.136Z,66.78
2022-08-17T12:22:43.185Z,68.37
2022-08-17T12:23:44.125Z,65.47
2022-08-17T12:24:43.104Z,67.05
2022-08-17T12:25:43.108Z,68.33
2022-08-17T12:26:43.090Z,68.93
2022-08-17T12:27:50.737Z,71.80
2022-08-17T12:28:44.076Z,69.52
2022-08-17T12:29:43.061Z,69.72
2022-08-17T12:30:43.082Z,71.60
2022-08-17T12:31:43.027Z,72.29
2022-08-17T12:32:43.025Z,66.06
2022-08-17T12:33:43.060Z,67.91
2022-08-17T12:34:43.001Z,66.82
2022-08-17T12:35:43.029Z,66.03
2022-08-17T12:36:42.981Z,69.26
2022-08-17T12:37:43.042Z,70.74
2022-08-17T12:38:43.043Z,69.56
2022-08-17T12:39:42.969Z,68.37
2022-08-17T12:40:42.941Z,68.46
2022-08-17T12:41:43.005Z,71.33
2022-08-17T12:42:42.914Z,71.83
2022-08-17T12:43:42.937Z,74.10
2022-08-17T12:44:50.314Z,74.49
2022-08-17T12:45:44.004Z,72.42
2022-08-17T12:46:42.886Z,72.91
2022-08-17T12:47:42.934Z,73.70
2022-08-17T12:48:59.688Z,71.53
2022-08-17T12:49:43.909Z,73.11
2022-08-17T12:50:42.844Z,72.22
2022-08-17T12:51:42.840Z,69.85
2022-08-17T12:52:42.829Z,68.86